sensor_id;sensor_type;location;lat;lon;timestamp;temperature;humidity
8979;DHT22;4524;51.364;5.448;2022-08-01T00:00:53;20.40;99.90
8979;DHT22;4524;51.364;5.448;2022-08-01T00:03:21;20.50;99.90
8979;DHT22;4524;51.364;5.448;2022-08-01T00:05:50;20.50;99.90
8979;DHT22;4524;51.364;5.448;2022-08-01T00:08:18;20.50;99.90
8979;DHT22;4524;51.364;5.448;2022-08-01T00:10:46;20.50;99.90
8979;DHT22;4524;51.364;5.448;2022-08-01T00:13:14;20.50;99.90
8979;DHT22;4524;51.364;5.448;2022-08-01T00:15:42;20.50;99.90
8979;DHT22;4524;51.364;5.448;2022-08-01T00:18:20;20.40;99.90
8979;DHT22;4524;51.364;5.448;2022-08-01T00:20:49;20.50;99.90
8979;DHT22;4524;51.364;5.448;2022-08-01T00:23:17;20.50;99.90
8979;DHT22;4524;51.364;5.448;2022-08-01T00:25:45;20.50;99.90
8979;DHT22;4524;51.364;5.448;2022-08-01T00:28:13;20.40;99.90
8979;DHT22;4524;51.364;5.448;2022-08-01T00:30:42;20.40;99.90
8979;DHT22;4524;51.364;5.448;2022-08-01T00:33:10;20.40;99.90
8979;DHT22;4524;51.364;5.448;2022-08-01T00:35:38;20.40;99.90
8979;DHT22;4524;51.364;5.448;2022-08-01T00:38:08;20.40;99.90
8979;DHT22;4524;51.364;5.448;2022-08-01T00:40:35;20.30;99.90
8979;DHT22;4524;51.364;5.448;2022-08-01T00:43:03;20.40;99.90
8979;DHT22;4524;51.364;5.448;2022-08-01T00:45:31;20.30;99.90
8979;DHT22;4524;51.364;5.448;2022-08-01T00:47:59;20.30;99.90
8979;DHT22;4524;51.364;5.448;2022-08-01T00:50:27;20.30;99.90
8979;DHT22;4524;51.364;5.448;2022-08-01T00:52:55;20.40;99.90
8979;DHT22;4524;51.364;5.448;2022-08-01T00:55:27;20.40;99.90
8979;DHT22;4524;51.364;5.448;2022-08-01T00:57:55;20.30;99.90
8979;DHT22;4524;51.364;5.448;2022-08-01T01:00:32;20.30;99.90
8979;DHT22;4524;51.364;5.448;2022-08-01T01:03:19;20.30;99.90
8979;DHT22;4524;51.364;5.448;2022-08-01T01:06:14;20.30;99.90
8979;DHT22;4524;51.364;5.448;2022-08-01T01:08:52;20.30;99.90
8979;DHT22;4524;51.364;5.448;2022-08-01T01:11:27;20.30;99.90
8979;DHT22;4524;51.364;5.448;2022-08-01T01:14:02;20.30;99.90
8979;DHT22;4524;51.364;5.448;2022-08-01T01:16:33;20.30;99.90
8979;DHT22;4524;51.364;5.448;2022-08-01T01:19:05;20.30;99.90
8979;DHT22;4524;51.364;5.448;2022-08-01T01:21:53;20.30;99.90
8979;DHT22;4524;51.364;5.448;2022-08-01T01:24:41;20.30;99.90
8979;DHT22;4524;51.364;5.448;2022-08-01T01:27:20;20.30;99.90
8979;DHT22;4524;51.364;5.448;2022-08-01T01:29:55;20.30;99.90
8979;DHT22;4524;51.364;5.448;2022-08-01T01:32:30;20.30;99.90
8979;DHT22;4524;51.364;5.448;2022-08-01T01:35:05;20.30;99.90
8979;DHT22;4524;51.364;5.448;2022-08-01T01:37:34;20.30;99.90
8979;DHT22;4524;51.364;5.448;2022-08-01T01:40:04;20.30;99.90
8979;DHT22;4524;51.364;5.448;2022-08-01T01:42:33;20.30;99.90
8979;DHT22;4524;51.364;5.448;2022-08-01T01:45:05;20.30;99.90
8979;DHT22;4524;51.364;5.448;2022-08-01T01:47:34;20.20;99.90
8979;DHT22;4524;51.364;5.448;2022-08-01T01:50:05;20.20;99.90
8979;DHT22;4524;51.364;5.448;2022-08-01T01:52:35;20.20;99.90
8979;DHT22;4524;51.364;5.448;2022-08-01T01:55:06;20.20;99.90
8979;DHT22;4524;51.364;5.448;2022-08-01T01:57:37;20.20;99.90
8979;DHT22;4524;51.364;5.448;2022-08-01T02:00:09;20.20;99.90
8979;DHT22;4524;51.364;5.448;2022-08-01T02:02:38;20.20;99.90
8979;DHT22;4524;51.364;5.448;2022-08-01T02:05:09;20.30;99.90
8979;DHT22;4524;51.364;5.448;2022-08-01T02:07:39;20.20;99.90
8979;DHT22;4524;51.364;5.448;2022-08-01T02:10:07;20.30;99.90
8979;DHT22;4524;51.364;5.448;2022-08-01T02:12:38;20.30;99.90
8979;DHT22;4524;51.364;5.448;2022-08-01T02:15:09;20.30;99.90
8979;DHT22;4524;51.364;5.448;2022-08-01T02:17:42;20.30;99.90
8979;DHT22;4524;51.364;5.448;2022-08-01T02:20:11;20.30;99.90
8979;DHT22;4524;51.364;5.448;2022-08-01T02:22:42;20.30;99.90
8979;DHT22;4524;51.364;5.448;2022-08-01T02:25:17;20.30;99.90
8979;DHT22;4524;51.364;5.448;2022-08-01T02:27:50;20.30;99.90
8979;DHT22;4524;51.364;5.448;2022-08-01T02:30:22;20.30;99.90
8979;DHT22;4524;51.364;5.448;2022-08-01T02:32:56;20.30;99.90
8979;DHT22;4524;51.364;5.448;2022-08-01T02:35:29;20.30;99.90
8979;DHT22;4524;51.364;5.448;2022-08-01T02:37:59;20.30;99.90
8979;DHT22;4524;51.364;5.448;2022-08-01T02:40:31;20.30;99.90
8979;DHT22;4524;51.364;5.448;2022-08-01T02:43:02;20.30;99.90
8979;DHT22;4524;51.364;5.448;2022-08-01T02:45:33;20.30;99.90
8979;DHT22;4524;51.364;5.448;2022-08-01T02:48:08;20.30;99.90
8979;DHT22;4524;51.364;5.448;2022-08-01T02:50:38;20.30;99.90
8979;DHT22;4524;51.364;5.448;2022-08-01T02:53:09;20.30;99.90
8979;DHT22;4524;51.364;5.448;2022-08-01T02:55:39;20.30;99.90
8979;DHT22;4524;51.364;5.448;2022-08-01T02:58:09;20.30;99.90
8979;DHT22;4524;51.364;5.448;2022-08-01T03:00:40;20.30;99.90
8979;DHT22;4524;51.364;5.448;2022-08-01T03:03:09;20.30;99.90
8979;DHT22;4524;51.364;5.448;2022-08-01T03:05:38;20.30;99.90
8979;DHT22;4524;51.364;5.448;2022-08-01T03:08:08;20.30;99.90
8979;DHT22;4524;51.364;5.448;2022-08-01T03:10:43;20.30;99.90
8979;DHT22;4524;51.364;5.448;2022-08-01T03:13:13;20.30;99.90
8979;DHT22;4524;51.364;5.448;2022-08-01T03:15:43;20.30;99.90
8979;DHT22;4524;51.364;5.448;2022-08-01T03:18:13;20.20;99.90
8979;DHT22;4524;51.364;5.448;2022-08-01T03:20:42;20.20;99.90
8979;DHT22;4524;51.364;5.448;2022-08-01T03:23:12;20.20;99.90
8979;DHT22;4524;51.364;5.448;2022-08-01T03:25:41;20.20;99.90
8979;DHT22;4524;51.364;5.448;2022-08-01T03:28:13;20.20;99.90
8979;DHT22;4524;51.364;5.448;2022-08-01T03:30:43;20.20;99.90
8979;DHT22;4524;51.364;5.448;2022-08-01T03:33:11;20.20;99.90
8979;DHT22;4524;51.364;5.448;2022-08-01T03:35:46;20.20;99.90
8979;DHT22;4524;51.364;5.448;2022-08-01T03:38:19;20.20;99.90
8979;DHT22;4524;51.364;5.448;2022-08-01T03:40:52;20.20;99.90
8979;DHT22;4524;51.364;5.448;2022-08-01T03:43:26;20.10;99.90
8979;DHT22;4524;51.364;5.448;2022-08-01T03:45:59;20.10;99.90
8979;DHT22;4524;51.364;5.448;2022-08-01T03:48:29;20.10;99.90
8979;DHT22;4524;51.364;5.448;2022-08-01T03:51:01;20.10;99.90
8979;DHT22;4524;51.364;5.448;2022-08-01T03:53:32;20.10;99.90
8979;DHT22;4524;51.364;5.448;2022-08-01T03:56:02;20.10;99.90
8979;DHT22;4524;51.364;5.448;2022-08-01T03:58:30;20.10;99.90
8979;DHT22;4524;51.364;5.448;2022-08-01T04:01:00;20.10;99.90
8979;DHT22;4524;51.364;5.448;2022-08-01T04:03:28;20.10;99.90
8979;DHT22;4524;51.364;5.448;2022-08-01T04:05:57;20.10;99.90
8979;DHT22;4524;51.364;5.448;2022-08-01T04:08:34;20.10;99.90
8979;DHT22;4524;51.364;5.448;2022-08-01T04:11:02;20.10;99.90
8979;DHT22;4524;51.364;5.448;2022-08-01T04:13:30;20.10;99.90
8979;DHT22;4524;51.364;5.448;2022-08-01T04:16:04;20.10;99.90
8979;DHT22;4524;51.364;5.448;2022-08-01T04:18:32;20.10;99.90
8979;DHT22;4524;51.364;5.448;2022-08-01T04:21:01;20.10;99.90
8979;DHT22;4524;51.364;5.448;2022-08-01T04:23:30;20.10;99.90
8979;DHT22;4524;51.364;5.448;2022-08-01T04:26:02;20.10;99.90
8979;DHT22;4524;51.364;5.448;2022-08-01T04:28:35;20.10;99.90
8979;DHT22;4524;51.364;5.448;2022-08-01T04:31:07;20.10;99.90
8979;DHT22;4524;51.364;5.448;2022-08-01T04:33:38;20.10;99.90
8979;DHT22;4524;51.364;5.448;2022-08-01T04:36:10;20.20;99.90
8979;DHT22;4524;51.364;5.448;2022-08-01T04:38:40;20.20;99.90
8979;DHT22;4524;51.364;5.448;2022-08-01T04:41:11;20.20;99.90
8979;DHT22;4524;51.364;5.448;2022-08-01T04:43:40;20.10;99.90
8979;DHT22;4524;51.364;5.448;2022-08-01T04:46:12;20.10;99.90
8979;DHT22;4524;51.364;5.448;2022-08-01T04:48:41;20.20;99.90
8979;DHT22;4524;51.364;5.448;2022-08-01T04:51:13;20.20;99.90
8979;DHT22;4524;51.364;5.448;2022-08-01T04:53:44;20.30;99.90
8979;DHT22;4524;51.364;5.448;2022-08-01T04:56:13;20.30;99.90
8979;DHT22;4524;51.364;5.448;2022-08-01T04:58:42;20.30;99.90
8979;DHT22;4524;51.364;5.448;2022-08-01T05:01:11;20.30;99.90
8979;DHT22;4524;51.364;5.448;2022-08-01T05:03:40;20.40;99.90
8979;DHT22;4524;51.364;5.448;2022-08-01T05:06:08;20.60;99.90
8979;DHT22;4524;51.364;5.448;2022-08-01T05:08:35;20.50;99.90
8979;DHT22;4524;51.364;5.448;2022-08-01T05:11:03;20.50;99.90
8979;DHT22;4524;51.364;5.448;2022-08-01T05:13:31;20.60;99.90
8979;DHT22;4524;51.364;5.448;2022-08-01T05:15:59;20.60;99.90
8979;DHT22;4524;51.364;5.448;2022-08-01T05:18:31;20.60;99.90
8979;DHT22;4524;51.364;5.448;2022-08-01T05:20:59;20.50;99.90
8979;DHT22;4524;51.364;5.448;2022-08-01T05:23:27;20.30;99.90
8979;DHT22;4524;51.364;5.448;2022-08-01T05:26:09;20.40;99.90
8979;DHT22;4524;51.364;5.448;2022-08-01T05:28:40;20.30;99.90
8979;DHT22;4524;51.364;5.448;2022-08-01T05:31:08;20.40;99.90
8979;DHT22;4524;51.364;5.448;2022-08-01T05:33:37;20.30;99.90
8979;DHT22;4524;51.364;5.448;2022-08-01T05:36:05;20.20;99.90
8979;DHT22;4524;51.364;5.448;2022-08-01T05:38:33;20.20;99.90
8979;DHT22;4524;51.364;5.448;2022-08-01T05:41:01;20.10;99.90
8979;DHT22;4524;51.364;5.448;2022-08-01T05:43:29;19.90;99.90
8979;DHT22;4524;51.364;5.448;2022-08-01T05:45:57;20.00;99.90
8979;DHT22;4524;51.364;5.448;2022-08-01T05:48:25;19.90;99.90
8979;DHT22;4524;51.364;5.448;2022-08-01T05:50:55;20.00;99.90
8979;DHT22;4524;51.364;5.448;2022-08-01T05:53:25;20.00;99.90
8979;DHT22;4524;51.364;5.448;2022-08-01T05:55:53;20.10;99.90
8979;DHT22;4524;51.364;5.448;2022-08-01T05:58:21;20.10;99.90
8979;DHT22;4524;51.364;5.448;2022-08-01T06:00:49;20.30;99.90
8979;DHT22;4524;51.364;5.448;2022-08-01T06:03:18;20.40;99.90
8979;DHT22;4524;51.364;5.448;2022-08-01T06:05:46;20.40;99.90
8979;DHT22;4524;51.364;5.448;2022-08-01T06:08:15;20.40;99.90
8979;DHT22;4524;51.364;5.448;2022-08-01T06:10:43;20.70;99.90
8979;DHT22;4524;51.364;5.448;2022-08-01T06:13:11;20.90;99.90
8979;DHT22;4524;51.364;5.448;2022-08-01T06:15:38;20.70;99.90
8979;DHT22;4524;51.364;5.448;2022-08-01T06:18:06;20.70;99.90
8979;DHT22;4524;51.364;5.448;2022-08-01T06:20:34;20.60;99.90
8979;DHT22;4524;51.364;5.448;2022-08-01T06:23:02;20.60;99.90
8979;DHT22;4524;51.364;5.448;2022-08-01T06:25:53;20.90;99.90
8979;DHT22;4524;51.364;5.448;2022-08-01T06:28:22;20.90;99.90
8979;DHT22;4524;51.364;5.448;2022-08-01T06:30:50;20.90;99.90
8979;DHT22;4524;51.364;5.448;2022-08-01T06:33:18;20.80;99.90
8979;DHT22;4524;51.364;5.448;2022-08-01T06:35:46;20.60;99.90
8979;DHT22;4524;51.364;5.448;2022-08-01T06:38:13;20.60;99.90
8979;DHT22;4524;51.364;5.448;2022-08-01T06:40:41;20.80;99.90
8979;DHT22;4524;51.364;5.448;2022-08-01T06:43:11;21.10;99.90
8979;DHT22;4524;51.364;5.448;2022-08-01T06:45:39;20.90;99.90
8979;DHT22;4524;51.364;5.448;2022-08-01T06:48:07;21.10;99.90
8979;DHT22;4524;51.364;5.448;2022-08-01T06:50:35;21.20;99.90
8979;DHT22;4524;51.364;5.448;2022-08-01T06:53:04;21.10;99.90
8979;DHT22;4524;51.364;5.448;2022-08-01T06:55:31;21.00;99.90
8979;DHT22;4524;51.364;5.448;2022-08-01T06:57:59;21.10;99.90
8979;DHT22;4524;51.364;5.448;2022-08-01T07:00:29;21.10;99.90
8979;DHT22;4524;51.364;5.448;2022-08-01T07:02:57;20.80;99.90
8979;DHT22;4524;51.364;5.448;2022-08-01T07:05:26;20.80;99.90
8979;DHT22;4524;51.364;5.448;2022-08-01T07:07:57;20.80;99.90
8979;DHT22;4524;51.364;5.448;2022-08-01T07:10:25;21.00;99.90
8979;DHT22;4524;51.364;5.448;2022-08-01T07:12:53;21.20;99.90
8979;DHT22;4524;51.364;5.448;2022-08-01T07:15:21;21.30;99.90
8979;DHT22;4524;51.364;5.448;2022-08-01T07:17:54;21.30;99.90
8979;DHT22;4524;51.364;5.448;2022-08-01T07:20:23;21.50;99.90
8979;DHT22;4524;51.364;5.448;2022-08-01T07:22:51;21.70;99.90
8979;DHT22;4524;51.364;5.448;2022-08-01T07:25:22;22.00;99.90
8979;DHT22;4524;51.364;5.448;2022-08-01T07:27:50;21.80;99.90
8979;DHT22;4524;51.364;5.448;2022-08-01T07:30:18;21.50;99.90
8979;DHT22;4524;51.364;5.448;2022-08-01T07:32:46;21.80;99.90
8979;DHT22;4524;51.364;5.448;2022-08-01T07:35:15;21.80;99.90
8979;DHT22;4524;51.364;5.448;2022-08-01T07:37:43;21.90;99.90
8979;DHT22;4524;51.364;5.448;2022-08-01T07:40:16;22.20;96.10
8979;DHT22;4524;51.364;5.448;2022-08-01T07:42:44;21.90;98.00
8979;DHT22;4524;51.364;5.448;2022-08-01T07:45:13;21.80;99.90
8979;DHT22;4524;51.364;5.448;2022-08-01T07:47:41;21.60;99.90
8979;DHT22;4524;51.364;5.448;2022-08-01T07:50:09;21.70;99.90
8979;DHT22;4524;51.364;5.448;2022-08-01T07:52:40;21.40;99.90
8979;DHT22;4524;51.364;5.448;2022-08-01T07:55:09;21.40;99.90
8979;DHT22;4524;51.364;5.448;2022-08-01T07:57:37;21.40;99.90
8979;DHT22;4524;51.364;5.448;2022-08-01T08:00:06;21.70;99.00
8979;DHT22;4524;51.364;5.448;2022-08-01T08:02:36;21.60;90.60
8979;DHT22;4524;51.364;5.448;2022-08-01T08:05:04;21.40;83.80
8979;DHT22;4524;51.364;5.448;2022-08-01T08:07:34;21.50;66.10
8979;DHT22;4524;51.364;5.448;2022-08-01T08:10:04;21.50;67.20
8979;DHT22;4524;51.364;5.448;2022-08-01T08:12:33;21.70;74.70
8979;DHT22;4524;51.364;5.448;2022-08-01T08:15:00;21.90;15.60
8979;DHT22;4524;51.364;5.448;2022-08-01T08:17:32;22.10;4.30
8979;DHT22;4524;51.364;5.448;2022-08-01T08:20:02;22.40;1.00
8979;DHT22;4524;51.364;5.448;2022-08-01T08:22:35;22.40;1.00
8979;DHT22;4524;51.364;5.448;2022-08-01T08:25:05;22.20;1.00
8979;DHT22;4524;51.364;5.448;2022-08-01T08:27:34;22.10;1.00
8979;DHT22;4524;51.364;5.448;2022-08-01T08:30:04;22.00;1.00
8979;DHT22;4524;51.364;5.448;2022-08-01T08:32:34;22.00;2.80
8979;DHT22;4524;51.364;5.448;2022-08-01T08:35:02;22.10;21.50
8979;DHT22;4524;51.364;5.448;2022-08-01T08:37:32;22.00;2.00
8979;DHT22;4524;51.364;5.448;2022-08-01T08:40:07;22.00;4.60
8979;DHT22;4524;51.364;5.448;2022-08-01T08:42:35;22.00;1.00
8979;DHT22;4524;51.364;5.448;2022-08-01T08:45:06;22.10;1.50
8979;DHT22;4524;51.364;5.448;2022-08-01T08:47:38;22.40;1.00
8979;DHT22;4524;51.364;5.448;2022-08-01T08:50:07;22.40;1.00
8979;DHT22;4524;51.364;5.448;2022-08-01T08:52:38;22.40;1.00
8979;DHT22;4524;51.364;5.448;2022-08-01T08:55:08;22.50;1.00
8979;DHT22;4524;51.364;5.448;2022-08-01T08:57:39;22.70;1.00
8979;DHT22;4524;51.364;5.448;2022-08-01T09:00:08;22.70;1.00
8979;DHT22;4524;51.364;5.448;2022-08-01T09:02:41;22.80;1.00
8979;DHT22;4524;51.364;5.448;2022-08-01T09:05:10;22.90;1.00
8979;DHT22;4524;51.364;5.448;2022-08-01T09:07:45;23.10;1.00
8979;DHT22;4524;51.364;5.448;2022-08-01T09:10:14;23.10;1.00
8979;DHT22;4524;51.364;5.448;2022-08-01T09:13:03;23.30;1.00
8979;DHT22;4524;51.364;5.448;2022-08-01T09:15:39;23.40;1.00
8979;DHT22;4524;51.364;5.448;2022-08-01T09:18:07;23.40;1.00
8979;DHT22;4524;51.364;5.448;2022-08-01T09:20:35;23.50;1.00
8979;DHT22;4524;51.364;5.448;2022-08-01T09:23:03;23.40;1.00
8979;DHT22;4524;51.364;5.448;2022-08-01T09:25:50;23.20;1.00
8979;DHT22;4524;51.364;5.448;2022-08-01T09:28:27;22.90;1.00
8979;DHT22;4524;51.364;5.448;2022-08-01T09:30:55;22.70;1.00
8979;DHT22;4524;51.364;5.448;2022-08-01T09:33:24;22.70;1.00
8979;DHT22;4524;51.364;5.448;2022-08-01T09:35:55;22.90;1.00
8979;DHT22;4524;51.364;5.448;2022-08-01T09:38:25;23.10;1.00
8979;DHT22;4524;51.364;5.448;2022-08-01T09:40:56;23.10;99.90
8979;DHT22;4524;51.364;5.448;2022-08-01T09:43:26;23.30;1.00
8979;DHT22;4524;51.364;5.448;2022-08-01T09:45:54;23.40;99.90
8979;DHT22;4524;51.364;5.448;2022-08-01T09:48:24;23.60;99.90
8979;DHT22;4524;51.364;5.448;2022-08-01T09:50:55;23.60;99.90
8979;DHT22;4524;51.364;5.448;2022-08-01T09:53:46;23.80;99.90
8979;DHT22;4524;51.364;5.448;2022-08-01T09:56:21;23.80;99.90
8979;DHT22;4524;51.364;5.448;2022-08-01T09:58:55;23.90;99.90
8979;DHT22;4524;51.364;5.448;2022-08-01T10:01:28;23.80;99.90
8979;DHT22;4524;51.364;5.448;2022-08-01T10:04:09;23.70;99.90
8979;DHT22;4524;51.364;5.448;2022-08-01T10:06:38;23.50;99.90
8979;DHT22;4524;51.364;5.448;2022-08-01T10:09:08;23.50;99.90
8979;DHT22;4524;51.364;5.448;2022-08-01T10:11:40;23.80;99.90
8979;DHT22;4524;51.364;5.448;2022-08-01T10:14:08;24.10;99.90
8979;DHT22;4524;51.364;5.448;2022-08-01T10:16:36;24.50;99.90
8979;DHT22;4524;51.364;5.448;2022-08-01T10:19:06;24.70;99.90
8979;DHT22;4524;51.364;5.448;2022-08-01T10:21:42;24.70;99.90
8979;DHT22;4524;51.364;5.448;2022-08-01T10:24:27;24.70;99.90
8979;DHT22;4524;51.364;5.448;2022-08-01T10:26:58;24.60;99.90
8979;DHT22;4524;51.364;5.448;2022-08-01T10:29:41;24.50;99.90
8979;DHT22;4524;51.364;5.448;2022-08-01T10:32:30;24.40;99.90
8979;DHT22;4524;51.364;5.448;2022-08-01T10:34:58;24.60;99.90
8979;DHT22;4524;51.364;5.448;2022-08-01T10:37:40;24.80;99.90
8979;DHT22;4524;51.364;5.448;2022-08-01T10:40:19;24.80;99.90
8979;DHT22;4524;51.364;5.448;2022-08-01T10:42:58;25.10;99.90
8979;DHT22;4524;51.364;5.448;2022-08-01T10:45:27;24.80;99.90
8979;DHT22;4524;51.364;5.448;2022-08-01T10:47:59;25.00;99.90
8979;DHT22;4524;51.364;5.448;2022-08-01T10:50:33;25.20;99.90
8979;DHT22;4524;51.364;5.448;2022-08-01T10:53:08;25.40;99.90
8979;DHT22;4524;51.364;5.448;2022-08-01T10:55:52;25.60;99.90
8979;DHT22;4524;51.364;5.448;2022-08-01T10:58:23;25.40;99.90
8979;DHT22;4524;51.364;5.448;2022-08-01T11:01:14;25.50;99.90
8979;DHT22;4524;51.364;5.448;2022-08-01T11:03:45;25.60;99.90
8979;DHT22;4524;51.364;5.448;2022-08-01T11:06:40;25.60;99.90
8979;DHT22;4524;51.364;5.448;2022-08-01T11:09:27;25.70;99.90
8979;DHT22;4524;51.364;5.448;2022-08-01T11:12:05;25.50;99.90
8979;DHT22;4524;51.364;5.448;2022-08-01T11:15:17;25.10;99.90
8979;DHT22;4524;51.364;5.448;2022-08-01T11:17:58;24.80;99.90
8979;DHT22;4524;51.364;5.448;2022-08-01T11:20:28;24.70;99.90
8979;DHT22;4524;51.364;5.448;2022-08-01T11:23:25;24.70;99.90
8979;DHT22;4524;51.364;5.448;2022-08-01T11:26:14;25.00;99.90
8979;DHT22;4524;51.364;5.448;2022-08-01T11:28:45;25.10;99.90
8979;DHT22;4524;51.364;5.448;2022-08-01T11:31:35;25.10;99.90
8979;DHT22;4524;51.364;5.448;2022-08-01T11:34:04;24.60;99.90
8979;DHT22;4524;51.364;5.448;2022-08-01T11:36:32;24.60;99.90
8979;DHT22;4524;51.364;5.448;2022-08-01T11:39:22;24.50;99.90
8979;DHT22;4524;51.364;5.448;2022-08-01T11:41:50;24.60;99.90
8979;DHT22;4524;51.364;5.448;2022-08-01T11:44:22;24.70;99.90
8979;DHT22;4524;51.364;5.448;2022-08-01T11:46:58;24.90;99.90
8979;DHT22;4524;51.364;5.448;2022-08-01T11:49:45;24.90;99.90
8979;DHT22;4524;51.364;5.448;2022-08-01T11:52:17;24.80;99.90
8979;DHT22;4524;51.364;5.448;2022-08-01T11:54:48;24.30;99.90
8979;DHT22;4524;51.364;5.448;2022-08-01T11:57:19;24.20;99.90
8979;DHT22;4524;51.364;5.448;2022-08-01T11:59:51;24.10;99.90
8979;DHT22;4524;51.364;5.448;2022-08-01T12:02:40;24.10;99.90
8979;DHT22;4524;51.364;5.448;2022-08-01T12:05:13;24.00;99.90
8979;DHT22;4524;51.364;5.448;2022-08-01T12:07:44;24.00;99.90
8979;DHT22;4524;51.364;5.448;2022-08-01T12:10:14;24.10;99.90
8979;DHT22;4524;51.364;5.448;2022-08-01T12:12:43;24.00;99.90
8979;DHT22;4524;51.364;5.448;2022-08-01T12:15:16;23.90;99.90
8979;DHT22;4524;51.364;5.448;2022-08-01T12:17:47;24.00;99.90
8979;DHT22;4524;51.364;5.448;2022-08-01T12:20:28;24.00;99.90
8979;DHT22;4524;51.364;5.448;2022-08-01T12:22:59;24.30;99.90
8979;DHT22;4524;51.364;5.448;2022-08-01T12:25:28;24.20;99.90
8979;DHT22;4524;51.364;5.448;2022-08-01T12:27:59;24.30;99.90
8979;DHT22;4524;51.364;5.448;2022-08-01T12:30:28;24.30;99.90
8979;DHT22;4524;51.364;5.448;2022-08-01T12:32:58;24.20;99.90
8979;DHT22;4524;51.364;5.448;2022-08-01T12:35:28;24.00;99.90
8979;DHT22;4524;51.364;5.448;2022-08-01T12:37:58;24.20;99.90
8979;DHT22;4524;51.364;5.448;2022-08-01T12:40:29;24.20;99.90
8979;DHT22;4524;51.364;5.448;2022-08-01T12:42:58;24.10;99.90
8979;DHT22;4524;51.364;5.448;2022-08-01T12:45:28;24.20;99.90
8979;DHT22;4524;51.364;5.448;2022-08-01T12:47:59;24.20;99.90
8979;DHT22;4524;51.364;5.448;2022-08-01T12:50:29;24.20;99.90
8979;DHT22;4524;51.364;5.448;2022-08-01T12:52:58;24.30;99.90
8979;DHT22;4524;51.364;5.448;2022-08-01T12:55:26;24.20;99.90
8979;DHT22;4524;51.364;5.448;2022-08-01T12:58:04;24.30;99.90
8979;DHT22;4524;51.364;5.448;2022-08-01T13:00:40;24.30;99.90
8979;DHT22;4524;51.364;5.448;2022-08-01T13:03:14;24.10;99.90
8979;DHT22;4524;51.364;5.448;2022-08-01T13:05:43;24.20;99.90
8979;DHT22;4524;51.364;5.448;2022-08-01T13:08:12;24.10;99.90
8979;DHT22;4524;51.364;5.448;2022-08-01T13:10:41;24.00;99.90
8979;DHT22;4524;51.364;5.448;2022-08-01T13:13:10;24.00;99.90
8979;DHT22;4524;51.364;5.448;2022-08-01T13:16:03;24.00;99.90
8979;DHT22;4524;51.364;5.448;2022-08-01T13:18:34;24.10;99.90
8979;DHT22;4524;51.364;5.448;2022-08-01T13:21:12;24.30;99.90
8979;DHT22;4524;51.364;5.448;2022-08-01T13:23:59;24.30;99.90
8979;DHT22;4524;51.364;5.448;2022-08-01T13:26:43;24.50;99.90
8979;DHT22;4524;51.364;5.448;2022-08-01T13:29:13;24.50;99.90
8979;DHT22;4524;51.364;5.448;2022-08-01T13:31:42;24.50;99.90
8979;DHT22;4524;51.364;5.448;2022-08-01T13:34:11;24.50;99.90
8979;DHT22;4524;51.364;5.448;2022-08-01T13:36:40;24.50;99.90
8979;DHT22;4524;51.364;5.448;2022-08-01T13:39:15;24.70;99.90
8979;DHT22;4524;51.364;5.448;2022-08-01T13:42:00;24.60;99.90
8979;DHT22;4524;51.364;5.448;2022-08-01T13:44:29;24.70;99.90
8979;DHT22;4524;51.364;5.448;2022-08-01T13:46:59;24.80;99.90
8979;DHT22;4524;51.364;5.448;2022-08-01T13:49:38;24.70;99.90
8979;DHT22;4524;51.364;5.448;2022-08-01T13:52:06;24.90;99.90
8979;DHT22;4524;51.364;5.448;2022-08-01T13:54:35;24.60;99.90
8979;DHT22;4524;51.364;5.448;2022-08-01T13:57:03;24.40;99.90
8979;DHT22;4524;51.364;5.448;2022-08-01T13:59:31;24.20;99.90
8979;DHT22;4524;51.364;5.448;2022-08-01T14:01:59;24.20;99.90
8979;DHT22;4524;51.364;5.448;2022-08-01T14:04:27;24.10;99.90
8979;DHT22;4524;51.364;5.448;2022-08-01T14:06:56;23.90;99.90
8979;DHT22;4524;51.364;5.448;2022-08-01T14:09:27;24.00;99.90
8979;DHT22;4524;51.364;5.448;2022-08-01T14:11:58;24.20;99.90
8979;DHT22;4524;51.364;5.448;2022-08-01T14:14:26;24.30;99.90
8979;DHT22;4524;51.364;5.448;2022-08-01T14:16:54;24.20;99.90
8979;DHT22;4524;51.364;5.448;2022-08-01T14:19:22;24.30;99.90
8979;DHT22;4524;51.364;5.448;2022-08-01T14:22:07;24.30;99.90
8979;DHT22;4524;51.364;5.448;2022-08-01T14:24:35;24.40;99.90
8979;DHT22;4524;51.364;5.448;2022-08-01T14:27:04;24.30;99.90
8979;DHT22;4524;51.364;5.448;2022-08-01T14:29:32;24.20;99.90
8979;DHT22;4524;51.364;5.448;2022-08-01T14:32:20;24.20;99.90
8979;DHT22;4524;51.364;5.448;2022-08-01T14:34:54;24.40;99.90
8979;DHT22;4524;51.364;5.448;2022-08-01T14:37:27;24.40;99.90
8979;DHT22;4524;51.364;5.448;2022-08-01T14:39:59;24.60;99.90
8979;DHT22;4524;51.364;5.448;2022-08-01T14:42:33;24.70;99.90
8979;DHT22;4524;51.364;5.448;2022-08-01T14:45:01;24.60;99.90
8979;DHT22;4524;51.364;5.448;2022-08-01T14:47:29;24.50;99.90
8979;DHT22;4524;51.364;5.448;2022-08-01T14:49:57;24.60;99.90
8979;DHT22;4524;51.364;5.448;2022-08-01T14:52:26;24.70;99.90
8979;DHT22;4524;51.364;5.448;2022-08-01T14:54:56;24.60;99.90
8979;DHT22;4524;51.364;5.448;2022-08-01T14:57:24;24.70;99.90
8979;DHT22;4524;51.364;5.448;2022-08-01T14:59:52;24.70;99.90
8979;DHT22;4524;51.364;5.448;2022-08-01T15:02:20;24.80;99.90
8979;DHT22;4524;51.364;5.448;2022-08-01T15:04:48;24.70;99.90
8979;DHT22;4524;51.364;5.448;2022-08-01T15:07:17;24.70;99.90
8979;DHT22;4524;51.364;5.448;2022-08-01T15:09:46;24.60;99.90
8979;DHT22;4524;51.364;5.448;2022-08-01T15:12:14;24.40;99.90
8979;DHT22;4524;51.364;5.448;2022-08-01T15:14:42;24.50;99.90
8979;DHT22;4524;51.364;5.448;2022-08-01T15:17:18;24.50;99.90
8979;DHT22;4524;51.364;5.448;2022-08-01T15:19:49;24.70;99.90
8979;DHT22;4524;51.364;5.448;2022-08-01T15:22:17;24.70;99.90
8979;DHT22;4524;51.364;5.448;2022-08-01T15:24:47;24.70;99.90
8979;DHT22;4524;51.364;5.448;2022-08-01T15:27:23;24.50;99.90
8979;DHT22;4524;51.364;5.448;2022-08-01T15:29:51;24.40;99.90
8979;DHT22;4524;51.364;5.448;2022-08-01T15:32:20;24.20;99.90
8979;DHT22;4524;51.364;5.448;2022-08-01T15:34:48;24.00;99.90
8979;DHT22;4524;51.364;5.448;2022-08-01T15:37:16;24.00;99.90
8979;DHT22;4524;51.364;5.448;2022-08-01T15:39:44;24.20;99.90
8979;DHT22;4524;51.364;5.448;2022-08-01T15:42:15;24.20;99.90
8979;DHT22;4524;51.364;5.448;2022-08-01T15:44:49;24.30;99.90
8979;DHT22;4524;51.364;5.448;2022-08-01T15:47:17;24.30;99.90
8979;DHT22;4524;51.364;5.448;2022-08-01T15:49:45;24.30;99.90
8979;DHT22;4524;51.364;5.448;2022-08-01T15:52:18;24.30;99.90
8979;DHT22;4524;51.364;5.448;2022-08-01T15:54:48;24.20;99.90
8979;DHT22;4524;51.364;5.448;2022-08-01T15:57:17;24.10;99.90
8979;DHT22;4524;51.364;5.448;2022-08-01T15:59:45;24.00;99.90
8979;DHT22;4524;51.364;5.448;2022-08-01T16:02:13;24.00;99.90
8979;DHT22;4524;51.364;5.448;2022-08-01T16:04:41;24.00;99.90
8979;DHT22;4524;51.364;5.448;2022-08-01T16:07:09;24.10;99.90
8979;DHT22;4524;51.364;5.448;2022-08-01T16:09:38;24.10;99.90
8979;DHT22;4524;51.364;5.448;2022-08-01T16:12:07;24.20;99.90
8979;DHT22;4524;51.364;5.448;2022-08-01T16:14:38;24.30;99.90
8979;DHT22;4524;51.364;5.448;2022-08-01T16:17:09;24.30;99.90
8979;DHT22;4524;51.364;5.448;2022-08-01T16:19:37;24.30;99.90
8979;DHT22;4524;51.364;5.448;2022-08-01T16:22:08;24.30;99.90
8979;DHT22;4524;51.364;5.448;2022-08-01T16:24:36;24.20;99.90
8979;DHT22;4524;51.364;5.448;2022-08-01T16:27:05;24.20;99.90
8979;DHT22;4524;51.364;5.448;2022-08-01T16:29:34;24.00;99.90